Time;durP1;ratioP1;P1;durP2;ratioP2;P2;SDS_P1;SDS_P2;PMS_P1;PMS_P2;Temp;Humidity;BMP_temperature;BMP_pressure;BME280_temperature;BME280_humidity;BME280_pressure;Samples;Min_cycle;Max_cycle;Signal;HPM_P1;HPM_P2
2022/12/18 08:18:08;;;;;;;3.10;1.90;;;-4.30;99.90;;;;;;4960614;23;20594;-71
2022/12/18 08:20:35;;;;;;;3.63;2.40;;;-4.30;99.90;;;;;;4952334;28;20219;-72
2022/12/18 08:23:02;;;;;;;4.30;2.60;;;-4.20;99.90;;;;;;4954798;29;20226;-74
2022/12/18 08:25:29;;;;;;;3.13;2.13;;;-4.10;99.90;;;;;;4954594;28;20228;-72
2022/12/18 08:27:56;;;;;;;1.10;0.97;;;-4.00;99.90;;;;;;4954809;29;20212;-71
2022/12/18 08:30:23;;;;;;;4.23;1.70;;;-3.80;99.90;;;;;;4954654;29;20212;-72
2022/12/18 08:32:52;;;;;;;5.97;1.57;;;-3.80;99.90;;;;;;4954628;29;20240;-73
2022/12/18 08:35:20;;;;;;;2.37;1.50;;;-3.70;99.90;;;;;;4954381;28;20259;-72
2022/12/18 08:37:47;;;;;;;4.07;1.63;;;-3.60;99.90;;;;;;4954612;28;20291;-71
2022/12/18 08:40:14;;;;;;;4.93;1.63;;;-3.50;99.90;;;;;;4954148;28;20219;-72
2022/12/18 08:45:26;;;;;;;2.63;1.60;;;-3.40;99.90;;;;;;4954401;28;20239;-72
2022/12/18 08:47:52;;;;;;;2.60;1.60;;;-3.40;99.90;;;;;;4954794;29;20208;-72
2022/12/18 08:50:21;;;;;;;1.40;1.20;;;-3.30;99.90;;;;;;4954334;28;20663;-71
2022/12/18 08:52:47;;;;;;;5.77;2.00;;;-3.30;99.90;;;;;;4954231;29;20227;-72
2022/12/18 08:55:14;;;;;;;4.63;2.23;;;-3.30;99.90;;;;;;4954612;28;20230;-71
2022/12/18 08:57:41;;;;;;;3.70;1.43;;;-3.20;99.90;;;;;;4954514;28;20243;-71
2022/12/18 09:00:09;;;;;;;5.77;2.00;;;-3.20;99.90;;;;;;4954446;29;20208;-71
2022/12/18 09:02:36;;;;;;;2.03;1.33;;;-3.10;99.90;;;;;;4954524;28;20227;-72
2022/12/18 09:05:03;;;;;;;3.93;2.37;;;-3.10;99.90;;;;;;4956589;28;20450;-73
2022/12/18 09:07:31;;;;;;;3.03;1.93;;;-3.00;99.90;;;;;;4957620;28;20212;-71
2022/12/18 09:09:58;;;;;;;2.60;1.20;;;-2.80;99.90;;;;;;4957726;28;20208;-71
2022/12/18 09:12:25;;;;;;;2.30;1.63;;;-2.70;99.90;;;;;;4957579;29;20239;-71
2022/12/18 09:14:51;;;;;;;4.53;2.03;;;-2.60;99.90;;;;;;4957541;28;20236;-71
2022/12/18 09:17:18;;;;;;;4.43;2.13;;;-2.50;99.90;;;;;;4957352;29;20659;-72
2022/12/18 09:19:45;;;;;;;3.60;1.60;;;-2.30;99.90;;;;;;4957243;28;20218;-72
2022/12/18 09:22:12;;;;;;;2.77;1.70;;;-2.30;99.90;;;;;;4957610;29;20212;-73
2022/12/18 09:24:40;;;;;;;6.37;2.80;;;-2.30;99.90;;;;;;4957324;28;20711;-72
2022/12/18 09:27:07;;;;;;;5.30;2.40;;;-2.20;99.90;;;;;;4957422;28;20214;-73
2022/12/18 09:29:34;;;;;;;7.60;2.63;;;-2.10;99.90;;;;;;4957388;28;20689;-73
2022/12/18 09:32:00;;;;;;;4.23;1.83;;;-2.00;99.90;;;;;;4957136;29;20749;-73
2022/12/18 09:34:27;;;;;;;4.10;2.00;;;-2.00;99.90;;;;;;4956928;28;20721;-72
2022/12/18 09:36:54;;;;;;;3.03;1.83;;;-2.00;99.90;;;;;;4957126;28;20563;-71
2022/12/18 09:39:21;;;;;;;3.63;1.97;;;-2.00;99.90;;;;;;4957242;29;20308;-71
2022/12/18 09:41:54;;;;;;;4.20;2.13;;;-1.80;99.90;;;;;;4957090;28;20231;-73
2022/12/18 09:44:25;;;;;;;4.13;2.13;;;-1.70;99.90;;;;;;4956930;28;20232;-72
2022/12/18 09:46:59;;;;;;;6.83;2.30;;;-1.50;99.90;;;;;;4957026;28;20571;-72
2022/12/18 09:49:30;;;;;;;6.83;2.87;;;-1.60;99.90;;;;;;4956799;29;20663;-72
2022/12/18 09:52:00;;;;;;;5.70;3.53;;;-1.40;99.90;;;;;;4957126;29;20268;-72
2022/12/18 09:54:32;;;;;;;5.03;2.30;;;-1.20;99.90;;;;;;4956937;28;20239;-72
2022/12/18 09:57:00;;;;;;;7.57;2.70;;;-1.20;99.90;;;;;;4956670;28;20208;-72
2022/12/18 09:59:32;;;;;;;7.70;3.07;;;-1.20;99.90;;;;;;4956886;28;20552;-72
2022/12/18 10:01:59;;;;;;;4.53;2.63;;;-1.20;99.90;;;;;;4957043;28;20418;-72
2022/12/18 10:04:30;;;;;;;3.97;2.43;;;-1.20;99.90;;;;;;4956707;28;20239;-72
2022/12/18 10:07:04;;;;;;;5.70;3.00;;;-1.10;99.90;;;;;;4956838;29;20294;-72
2022/12/18 10:09:37;;;;;;;7.97;3.17;;;-0.90;99.90;;;;;;4956660;28;20214;-71
2022/12/18 10:12:13;;;;;;;6.00;2.67;;;-0.80;99.90;;;;;;4956325;29;20228;-71
2022/12/18 10:14:46;;;;;;;8.77;2.97;;;-0.70;99.90;;;;;;4956380;28;20238;-72
2022/12/18 10:17:24;;;;;;;5.20;2.73;;;-0.50;99.90;;;;;;4956635;29;20210;-73
2022/12/18 10:19:55;;;;;;;9.90;3.63;;;-0.40;99.90;;;;;;4956239;28;20219;-72
2022/12/18 10:22:30;;;;;;;7.20;3.73;;;-0.50;99.90;;;;;;4956444;29;20207;-72
2022/12/18 10:25:04;;;;;;;4.67;2.93;;;-0.80;99.90;;;;;;4956452;28;20227;-71
2022/12/18 10:27:33;;;;;;;7.53;3.57;;;-0.70;99.90;;;;;;4956512;29;20212;-71
2022/12/18 10:30:01;;;;;;;5.20;2.80;;;-0.60;99.90;;;;;;4956552;28;20204;-72
2022/12/18 10:32:31;;;;;;;5.80;3.07;;;-0.40;99.90;;;;;;4956121;28;20677;-72
2022/12/18 10:34:59;;;;;;;7.67;3.87;;;-0.30;99.90;;;;;;4956089;28;20563;-72
2022/12/18 10:37:28;;;;;;;5.63;2.87;;;-0.10;99.90;;;;;;4956614;28;20296;-71
2022/12/18 10:40:12;;;;;;;9.03;3.67;;;-0.20;99.90;;;;;;4956260;29;20220;-72
2022/12/18 10:42:41;;;;;;;7.60;3.43;;;-0.20;99.90;;;;;;4955968;29;20216;-72
2022/12/18 10:45:12;;;;;;;6.23;3.00;;;-0.40;99.90;;;;;;4955539;28;20228;-72
2022/12/18 10:47:44;;;;;;;7.70;3.30;;;-0.40;99.90;;;;;;4955860;29;20223;-72
2022/12/18 10:50:25;;;;;;;8.03;3.73;;;-0.30;99.90;;;;;;4956019;29;20216;-72
2022/12/18 10:52:56;;;;;;;6.23;3.43;;;-0.20;99.90;;;;;;4955712;29;20231;-72
2022/12/18 10:55:32;;;;;;;7.93;3.50;;;0.00;99.90;;;;;;4955875;28;20224;-72
2022/12/18 10:58:17;;;;;;;9.30;3.47;;;0.10;99.90;;;;;;4955883;29;20204;-72
2022/12/18 11:00:43;;;;;;;7.37;4.27;;;0.30;99.90;;;;;;4955887;28;20209;-72
2022/12/18 11:03:32;;;;;;;9.90;4.13;;;0.60;99.90;;;;;;4955684;29;20336;-71
2022/12/18 11:06:04;;;;;;;9.47;3.90;;;0.80;99.90;;;;;;4955575;28;20327;-70
2022/12/18 11:08:31;;;;;;;8.73;3.77;;;1.00;99.90;;;;;;4955237;29;20704;-70
2022/12/18 11:10:58;;;;;;;9.47;4.27;;;1.20;99.90;;;;;;4955680;29;20208;-71
2022/12/18 11:13:28;;;;;;;8.73;4.60;;;1.20;99.90;;;;;;4955523;29;20236;-70
2022/12/18 11:15:55;;;;;;;7.43;3.30;;;1.30;99.90;;;;;;4955218;28;20232;-70
2022/12/18 11:18:27;;;;;;;8.00;3.60;;;1.30;99.90;;;;;;4955001;28;20212;-70
2022/12/18 11:20:57;;;;;;;9.97;4.13;;;1.50;99.90;;;;;;4954007;29;20715;-70
2022/12/18 11:23:24;;;;;;;8.30;4.40;;;1.50;99.90;;;;;;4954022;29;20664;-70
2022/12/18 11:25:57;;;;;;;9.33;4.57;;;1.60;99.90;;;;;;4954057;28;20228;-70
2022/12/18 11:28:37;;;;;;;10.83;4.40;;;1.70;99.90;;;;;;4954033;29;20677;-70
2022/12/18 11:31:20;;;;;;;7.93;4.40;;;1.80;99.90;;;;;;4954386;28;20608;-71
2022/12/18 11:33:53;;;;;;;7.93;4.20;;;1.90;99.90;;;;;;4954510;29;20240;-71
2022/12/18 11:36:21;;;;;;;8.27;3.77;;;1.70;99.90;;;;;;4954310;29;20207;-70
2022/12/18 11:38:50;;;;;;;9.57;4.17;;;1.70;99.90;;;;;;4954340;28;20214;-70
2022/12/18 11:42:08;;;;;;;13.10;7.33;;;1.90;99.90;;;;;;4954590;29;20215;-71
2022/12/18 11:44:16;;;;;;;11.83;5.03;;;1.90;99.90;;;;;;4954543;28;20302;-70
2022/12/18 11:46:48;;;;;;;8.73;4.63;;;2.00;99.90;;;;;;4954789;29;20663;-70
2022/12/18 11:49:20;;;;;;;10.27;5.17;;;1.90;99.90;;;;;;4954671;29;20210;-71
2022/12/18 11:51:52;;;;;;;11.17;5.27;;;2.10;99.90;;;;;;4954766;28;20567;-72
2022/12/18 11:54:19;;;;;;;14.70;6.10;;;2.00;99.90;;;;;;4954281;28;20595;-72
2022/12/18 11:56:50;;;;;;;10.20;4.40;;;2.00;99.90;;;;;;4954728;29;20663;-72
2022/12/18 11:59:28;;;;;;;9.07;5.00;;;2.00;99.90;;;;;;4954945;29;20216;-71
2022/12/18 12:02:02;;;;;;;8.43;4.73;;;2.10;99.90;;;;;;4954835;29;20233;-71
2022/12/18 12:04:51;;;;;;;9.80;5.00;;;2.20;99.90;;;;;;4954328;28;20231;-71
2022/12/18 12:07:27;;;;;;;13.23;5.50;;;2.40;99.90;;;;;;4954517;29;20211;-72
2022/12/18 12:10:05;;;;;;;8.63;4.93;;;2.30;99.90;;;;;;4954329;29;20217;-71
2022/12/18 12:12:46;;;;;;;10.73;4.80;;;2.50;99.90;;;;;;4954654;29;20211;-72
2022/12/18 12:15:23;;;;;;;9.40;4.57;;;2.60;99.90;;;;;;4954509;28;20340;-71
2022/12/18 12:17:55;;;;;;;12.13;4.77;;;2.70;99.90;;;;;;4954059;29;20204;-71
2022/12/18 12:20:28;;;;;;;9.97;4.60;;;2.50;99.90;;;;;;4954361;29;20204;-71
2022/12/18 12:23:03;;;;;;;9.57;4.50;;;2.30;99.90;;;;;;4954192;28;20208;-71
2022/12/18 12:25:39;;;;;;;10.33;5.00;;;2.40;99.90;;;;;;4954130;28;20227;-71
2022/12/18 12:28:25;;;;;;;10.13;5.07;;;2.40;99.90;;;;;;4954227;28;20212;-72
2022/12/18 12:31:03;;;;;;;8.83;4.93;;;2.50;99.90;;;;;;4954684;29;20218;-71
2022/12/18 12:33:40;;;;;;;10.70;5.07;;;2.50;99.90;;;;;;4953803;28;20231;-71
2022/12/18 12:36:20;;;;;;;9.40;3.97;;;2.70;99.90;;;;;;4954511;28;20231;-71
2022/12/18 12:38:52;;;;;;;12.83;5.97;;;2.60;99.90;;;;;;4956613;28;20237;-71
2022/12/18 12:44:10;;;;;;;11.10;4.87;;;2.80;99.90;;;;;;4957973;28;20210;-72
2022/12/18 12:46:40;;;;;;;8.73;4.50;;;3.00;99.90;;;;;;4958041;29;20218;-70
2022/12/18 12:49:14;;;;;;;11.77;5.20;;;2.80;99.90;;;;;;4957622;29;20616;-72
2022/12/18 12:51:44;;;;;;;11.40;4.67;;;2.90;99.90;;;;;;4957957;29;20208;-71
2022/12/18 12:54:17;;;;;;;12.10;4.80;;;2.70;99.90;;;;;;4957999;28;20231;-71
2022/12/18 12:56:51;;;;;;;13.73;7.50;;;2.60;99.90;;;;;;4957637;28;20211;-71
2022/12/18 12:59:26;;;;;;;11.77;5.53;;;2.70;99.90;;;;;;4957474;29;20215;-72
2022/12/18 13:02:03;;;;;;;15.27;6.53;;;2.70;99.90;;;;;;4957045;29;20205;-71
2022/12/18 13:04:37;;;;;;;12.83;5.70;;;2.80;99.90;;;;;;4956645;28;20721;-71
2022/12/18 13:07:12;;;;;;;13.60;5.57;;;2.90;99.90;;;;;;4956947;28;20207;-71
2022/12/18 13:10:27;;;;;;;9.43;4.30;;;2.80;99.90;;;;;;4957027;29;20666;-71
2022/12/18 13:12:57;;;;;;;21.53;9.47;;;2.80;99.90;;;;;;4942446;28;20212;-71
2022/12/18 13:15:26;;;;;;;13.77;6.43;;;2.80;99.90;;;;;;4957522;28;20709;-71
2022/12/18 13:18:19;;;;;;;16.30;5.57;;;2.70;99.90;;;;;;4957267;28;20204;-71
2022/12/18 13:20:47;;;;;;;12.33;5.47;;;2.80;99.90;;;;;;4957381;28;20222;-73
2022/12/18 13:23:32;;;;;;;11.50;4.73;;;2.90;99.90;;;;;;4956630;28;20214;-72
2022/12/18 13:26:00;;;;;;;10.77;5.20;;;3.00;99.90;;;;;;4956727;28;20265;-72
2022/12/18 13:28:53;;;;;;;14.63;5.20;;;3.10;99.90;;;;;;4957057;29;20216;-72
2022/12/18 13:31:56;;;;;;;18.00;7.63;;;3.10;99.90;;;;;;4956635;28;20691;-72
2022/12/18 13:34:24;;;;;;;23.00;8.00;;;3.00;99.90;;;;;;4943840;28;20599;-72
2022/12/18 13:36:53;;;;;;;12.60;6.33;;;2.90;99.90;;;;;;4956680;29;20208;-72
2022/12/18 13:39:34;;;;;;;24.83;10.03;;;3.00;99.90;;;;;;4956658;29;20212;-72
2022/12/18 13:45:41;;;;;;;10.03;5.37;;;3.00;99.90;;;;;;4946716;29;20312;-73
2022/12/18 13:48:17;;;;;;;12.67;4.93;;;2.80;99.90;;;;;;4947066;29;20204;-73
2022/12/18 13:50:44;;;;;;;14.40;6.37;;;2.70;99.90;;;;;;4954696;28;20212;-72
2022/12/18 13:53:21;;;;;;;16.60;7.43;;;2.70;99.90;;;;;;4956740;29;20208;-72
2022/12/18 13:55:48;;;;;;;16.93;6.17;;;2.80;99.90;;;;;;4956455;28;20571;-72
2022/12/18 13:58:14;;;;;;;20.10;8.70;;;2.80;99.90;;;;;;4955988;28;20311;-72
2022/12/18 14:00:45;;;;;;;17.50;7.43;;;2.70;99.90;;;;;;4956367;29;20215;-72
2022/12/18 14:03:20;;;;;;;23.10;8.03;;;2.70;99.90;;;;;;4956639;28;20215;-72
2022/12/18 14:05:53;;;;;;;15.23;6.03;;;2.80;99.90;;;;;;4956522;29;20242;-72
2022/12/18 14:08:20;;;;;;;15.67;5.30;;;2.80;99.90;;;;;;4956389;29;20212;-73
2022/12/18 14:10:49;;;;;;;13.37;5.27;;;2.80;99.90;;;;;;4956079;29;20725;-73
2022/12/18 14:13:25;;;;;;;22.50;9.97;;;2.70;99.90;;;;;;4955925;29;20212;-73
2022/12/18 14:15:53;;;;;;;20.03;7.97;;;2.60;99.90;;;;;;4956681;28;20239;-70
2022/12/18 14:18:23;;;;;;;16.13;6.60;;;2.60;99.90;;;;;;4955959;28;20216;-70
2022/12/18 14:20:52;;;;;;;15.83;5.93;;;2.70;99.90;;;;;;4955724;29;20587;-71
2022/12/18 14:23:34;;;;;;;15.70;6.90;;;2.60;99.90;;;;;;4956230;29;20208;-72
2022/12/18 14:26:02;;;;;;;17.37;7.53;;;2.60;99.90;;;;;;4955850;28;20583;-72
2022/12/18 14:28:29;;;;;;;12.67;6.43;;;2.60;99.90;;;;;;4955997;28;20577;-72
2022/12/18 14:30:58;;;;;;;17.03;6.43;;;2.70;99.90;;;;;;4955764;29;20208;-72
2022/12/18 14:33:26;;;;;;;13.57;6.40;;;2.70;99.90;;;;;;4955264;28;20208;-72
2022/12/18 14:35:57;;;;;;;18.37;7.60;;;2.80;99.90;;;;;;4955984;29;20235;-72
2022/12/18 14:38:30;;;;;;;18.43;7.67;;;2.90;99.90;;;;;;4955800;29;20578;-72
2022/12/18 14:40:59;;;;;;;13.00;5.07;;;2.60;99.90;;;;;;4955695;29;20290;-72
2022/12/18 14:43:26;;;;;;;15.77;6.83;;;2.70;99.90;;;;;;4955577;28;20214;-73
2022/12/18 14:45:54;;;;;;;15.03;6.37;;;2.60;99.90;;;;;;4955542;28;20232;-72
2022/12/18 14:48:26;;;;;;;12.90;6.07;;;2.50;99.90;;;;;;4955406;29;20205;-73
2022/12/18 14:50:59;;;;;;;13.83;7.20;;;2.50;99.90;;;;;;4943711;29;20288;-72
2022/12/18 14:53:34;;;;;;;13.53;5.93;;;2.40;99.90;;;;;;4936126;29;20216;-72
2022/12/18 14:56:01;;;;;;;15.80;5.90;;;2.40;99.90;;;;;;4936063;29;20243;-73
2022/12/18 14:58:29;;;;;;;12.83;6.07;;;2.40;99.90;;;;;;4936425;29;20216;-72
2022/12/18 15:00:55;;;;;;;20.60;7.40;;;2.30;99.90;;;;;;4936438;29;20212;-72
2022/12/18 15:03:23;;;;;;;15.70;7.37;;;2.30;99.90;;;;;;4936443;29;20205;-72
2022/12/18 15:05:50;;;;;;;12.30;6.83;;;2.30;99.90;;;;;;4935953;29;20707;-72
2022/12/18 15:08:35;;;;;;;17.37;7.17;;;2.30;99.90;;;;;;4936194;29;20212;-71
2022/12/18 15:11:02;;;;;;;14.40;6.30;;;2.30;99.90;;;;;;4936088;29;20204;-72
2022/12/18 15:13:28;;;;;;;20.53;8.00;;;2.20;99.90;;;;;;4938000;29;20205;-72
2022/12/18 15:15:57;;;;;;;17.07;6.80;;;2.30;99.90;;;;;;4935917;29;20247;-72
2022/12/18 15:18:31;;;;;;;19.67;7.63;;;2.40;99.90;;;;;;4935943;29;20231;-73
2022/12/18 15:20:59;;;;;;;15.33;6.80;;;2.40;99.90;;;;;;4936010;29;20216;-71
2022/12/18 15:23:28;;;;;;;15.83;7.63;;;2.20;99.90;;;;;;4936031;29;20682;-71
2022/12/18 15:25:59;;;;;;;12.97;6.00;;;2.10;99.90;;;;;;4935883;29;20542;-73
2022/12/18 15:28:31;;;;;;;14.63;6.70;;;2.10;99.90;;;;;;4935467;29;20744;-72
2022/12/18 15:31:20;;;;;;;16.97;6.80;;;2.00;99.90;;;;;;4935732;29;20623;-71
2022/12/18 15:34:03;;;;;;;14.43;6.30;;;2.00;99.90;;;;;;4935451;29;20213;-71
2022/12/18 15:36:30;;;;;;;15.43;6.10;;;1.90;99.90;;;;;;4935588;29;20205;-72
2022/12/18 15:38:58;;;;;;;12.43;6.30;;;2.00;99.90;;;;;;4937987;28;20202;-71
2022/12/18 15:41:25;;;;;;;15.47;6.10;;;2.10;99.90;;;;;;4946401;29;20208;-72
2022/12/18 15:43:52;;;;;;;16.47;6.53;;;2.00;99.90;;;;;;4954677;28;20208;-72
2022/12/18 15:46:21;;;;;;;21.73;7.73;;;1.90;99.90;;;;;;4954697;29;20276;-72
2022/12/18 15:48:50;;;;;;;23.77;7.30;;;2.00;99.90;;;;;;4943009;29;20201;-72
2022/12/18 15:51:20;;;;;;;18.90;6.70;;;2.20;99.90;;;;;;4935393;29;20207;-72
2022/12/18 15:53:49;;;;;;;17.47;7.47;;;2.10;99.90;;;;;;4935193;29;20220;-72
2022/12/18 15:59:01;;;;;;;16.77;7.30;;;2.30;99.90;;;;;;4953341;29;20737;-72
2022/12/18 16:01:29;;;;;;;16.93;7.10;;;2.20;99.90;;;;;;4953862;29;20238;-72
2022/12/18 16:03:57;;;;;;;17.53;7.13;;;2.30;99.90;;;;;;4953952;29;20212;-72
2022/12/18 16:06:25;;;;;;;15.37;6.23;;;2.20;99.90;;;;;;4948555;29;20201;-72
2022/12/18 16:08:51;;;;;;;14.93;6.50;;;2.20;99.90;;;;;;4953651;29;20218;-72
2022/12/18 16:11:37;;;;;;;15.83;6.60;;;2.20;99.90;;;;;;4953970;29;20208;-72
2022/12/18 16:14:05;;;;;;;16.10;6.57;;;2.20;99.90;;;;;;4953634;29;20224;-72
2022/12/18 16:16:32;;;;;;;22.27;7.83;;;2.20;99.90;;;;;;4942468;29;20726;-72
2022/12/18 16:18:59;;;;;;;13.77;6.37;;;2.30;99.90;;;;;;4945114;29;20219;-73
2022/12/18 16:21:27;;;;;;;21.90;7.23;;;2.20;99.90;;;;;;4938522;29;20289;-72
2022/12/18 16:23:53;;;;;;;17.73;7.93;;;2.40;99.90;;;;;;4940406;29;20209;-72
2022/12/18 16:26:20;;;;;;;13.00;5.83;;;2.40;99.90;;;;;;4938703;29;20209;-73
2022/12/18 16:28:47;;;;;;;16.20;7.33;;;2.40;99.90;;;;;;4941596;29;20200;-72
2022/12/18 16:31:14;;;;;;;14.30;6.07;;;2.20;99.90;;;;;;4955272;29;20220;-72
2022/12/18 16:33:40;;;;;;;10.70;4.93;;;2.20;99.90;;;;;;4938633;29;20230;-72
2022/12/18 16:36:08;;;;;;;18.40;6.70;;;2.20;99.90;;;;;;4947962;28;20243;-71
2022/12/18 16:38:36;;;;;;;17.20;6.73;;;2.10;99.90;;;;;;4947893;29;20200;-71
2022/12/18 16:43:50;;;;;;;20.33;6.87;;;2.10;99.90;;;;;;4957484;29;20224;-72
2022/12/18 16:46:17;;;;;;;15.33;6.27;;;2.10;99.90;;;;;;4957314;28;20232;-72
2022/12/18 16:48:43;;;;;;;17.47;6.30;;;2.20;99.90;;;;;;4956956;28;20218;-72
2022/12/18 16:51:10;;;;;;;15.37;6.63;;;2.20;99.90;;;;;;4957321;28;20578;-72
2022/12/18 16:53:38;;;;;;;14.73;6.20;;;2.10;99.90;;;;;;4957535;28;20215;-72
2022/12/18 16:56:05;;;;;;;12.67;6.03;;;2.20;99.90;;;;;;4956908;28;20250;-72
2022/12/18 16:58:32;;;;;;;20.83;10.40;;;2.30;99.90;;;;;;4957443;29;20218;-71
2022/12/18 17:00:59;;;;;;;19.00;6.67;;;2.30;99.90;;;;;;4957168;29;20626;-72
2022/12/18 17:03:26;;;;;;;14.27;6.90;;;2.20;99.90;;;;;;4957414;29;20232;-72
2022/12/18 17:05:53;;;;;;;13.23;5.87;;;2.30;99.90;;;;;;4956537;28;20590;-71
2022/12/18 17:08:20;;;;;;;13.00;5.80;;;2.20;99.90;;;;;;4957090;29;20212;-72
2022/12/18 17:10:48;;;;;;;14.30;6.17;;;2.10;99.90;;;;;;4957079;28;20247;-72
2022/12/18 17:13:15;;;;;;;15.53;5.47;;;2.20;99.90;;;;;;4957175;28;20208;-72
2022/12/18 17:15:41;;;;;;;18.80;7.00;;;2.20;99.90;;;;;;4956874;29;20245;-72
2022/12/18 17:18:08;;;;;;;16.13;6.27;;;2.20;99.90;;;;;;4956458;29;20707;-72
2022/12/18 17:20:35;;;;;;;12.47;5.27;;;2.20;99.90;;;;;;4956641;29;20234;-72
2022/12/18 17:23:02;;;;;;;16.13;6.73;;;2.20;99.90;;;;;;4956839;29;20218;-72
2022/12/18 17:25:28;;;;;;;14.87;6.33;;;2.30;99.90;;;;;;4955515;28;20235;-72
2022/12/18 17:27:57;;;;;;;17.50;6.47;;;2.30;99.90;;;;;;4956275;29;20239;-72
2022/12/18 17:30:24;;;;;;;18.73;6.17;;;2.40;99.90;;;;;;4956671;28;20291;-72
2022/12/18 17:32:50;;;;;;;16.23;6.60;;;2.50;99.90;;;;;;4956998;29;20204;-72
2022/12/18 17:35:17;;;;;;;19.13;7.67;;;2.30;99.90;;;;;;4956413;28;20242;-72
2022/12/18 17:37:44;;;;;;;16.47;6.50;;;2.40;99.90;;;;;;4956976;29;20208;-72
2022/12/18 17:40:11;;;;;;;16.50;7.30;;;2.40;99.90;;;;;;4956849;28;20208;-72
2022/12/18 17:42:38;;;;;;;19.60;6.93;;;2.40;99.90;;;;;;4956904;28;20219;-72
2022/12/18 17:45:08;;;;;;;17.23;7.10;;;2.30;99.90;;;;;;4957145;28;20232;-72
2022/12/18 17:47:34;;;;;;;15.73;6.93;;;2.20;99.90;;;;;;4956696;29;20292;-72
2022/12/18 17:50:01;;;;;;;18.17;7.53;;;2.20;99.90;;;;;;4956853;28;20219;-72
2022/12/18 17:52:28;;;;;;;15.70;6.57;;;2.30;99.90;;;;;;4956905;29;20651;-71
2022/12/18 17:54:55;;;;;;;16.57;6.57;;;2.40;99.90;;;;;;4956704;28;20611;-71
2022/12/18 17:57:22;;;;;;;13.57;5.37;;;2.40;99.90;;;;;;4956692;29;20219;-72
2022/12/18 17:59:49;;;;;;;14.37;6.07;;;2.30;99.90;;;;;;4956382;29;20212;-72
2022/12/18 18:02:17;;;;;;;15.30;6.57;;;2.30;99.90;;;;;;4956696;29;20291;-72
2022/12/18 18:04:43;;;;;;;18.33;6.50;;;2.20;99.90;;;;;;4956308;28;20224;-72
2022/12/18 18:07:10;;;;;;;19.53;7.03;;;2.10;99.90;;;;;;4956571;28;20302;-72
2022/12/18 18:09:37;;;;;;;12.90;5.63;;;2.00;99.90;;;;;;4956298;29;20208;-72
2022/12/18 18:14:48;;;;;;;17.27;7.60;;;1.90;99.90;;;;;;4956357;28;20223;-72
2022/12/18 18:17:16;;;;;;;23.37;6.80;;;1.90;99.90;;;;;;4955917;28;20208;-71
2022/12/18 18:19:43;;;;;;;21.07;7.57;;;1.90;99.90;;;;;;4956014;28;20220;-72
2022/12/18 18:22:10;;;;;;;14.93;6.57;;;1.80;99.90;;;;;;4956041;29;20259;-72
2022/12/18 18:24:37;;;;;;;16.47;7.70;;;1.90;99.90;;;;;;4956319;28;20224;-72
2022/12/18 18:27:04;;;;;;;16.73;6.27;;;1.80;99.90;;;;;;4956344;29;20295;-72
2022/12/18 18:29:31;;;;;;;18.73;6.20;;;1.80;99.90;;;;;;4956276;28;20208;-72
2022/12/18 18:31:58;;;;;;;14.17;6.43;;;1.90;99.90;;;;;;4956067;28;20230;-72
2022/12/18 18:34:28;;;;;;;16.73;6.30;;;1.90;99.90;;;;;;4955809;28;20231;-71
2022/12/18 18:36:55;;;;;;;15.23;6.50;;;1.80;99.90;;;;;;4955934;28;20235;-71
2022/12/18 18:39:21;;;;;;;14.03;6.03;;;1.90;99.90;;;;;;4955896;29;20211;-71
2022/12/18 18:41:49;;;;;;;17.83;5.83;;;1.90;99.90;;;;;;4956015;29;20212;-71
2022/12/18 18:44:16;;;;;;;21.83;7.53;;;1.90;99.90;;;;;;4955890;28;20332;-72
2022/12/18 18:46:43;;;;;;;18.13;7.37;;;1.80;99.90;;;;;;4956024;29;20208;-72
2022/12/18 18:49:10;;;;;;;18.37;6.63;;;1.90;99.90;;;;;;4955906;29;20214;-71
2022/12/18 18:51:38;;;;;;;13.77;5.87;;;1.80;99.90;;;;;;4955839;28;20295;-71
2022/12/18 18:54:05;;;;;;;15.93;6.60;;;1.70;99.90;;;;;;4955692;28;20214;-72
2022/12/18 18:56:33;;;;;;;17.27;6.73;;;1.70;99.90;;;;;;4955675;29;20263;-71
2022/12/18 18:58:59;;;;;;;16.53;6.67;;;1.80;99.90;;;;;;4955472;28;20298;-71
2022/12/18 19:01:26;;;;;;;35.87;10.73;;;1.70;99.90;;;;;;4955835;29;20218;-71
2022/12/18 19:03:54;;;;;;;26.90;9.93;;;1.70;99.90;;;;;;4955467;29;20208;-71
2022/12/18 19:06:23;;;;;;;29.60;11.23;;;1.70;99.90;;;;;;4955908;29;20295;-71
2022/12/18 19:08:52;;;;;;;12.10;6.07;;;1.80;99.90;;;;;;4955685;28;20208;-71
2022/12/18 19:14:07;;;;;;;14.33;5.23;;;1.70;99.90;;;;;;4955406;28;20258;-70
2022/12/18 19:16:34;;;;;;;23.67;8.00;;;1.80;99.90;;;;;;4955467;28;20235;-71
2022/12/18 19:19:01;;;;;;;15.57;6.40;;;1.80;99.90;;;;;;4954902;29;20220;-71
2022/12/18 19:21:28;;;;;;;24.93;8.07;;;1.80;99.90;;;;;;4955079;29;20570;-70
2022/12/18 19:23:57;;;;;;;16.87;8.27;;;1.90;99.90;;;;;;4955116;28;20230;-71
2022/12/18 19:26:24;;;;;;;33.70;12.07;;;2.00;99.90;;;;;;4955176;28;20212;-71
2022/12/18 19:28:51;;;;;;;11.57;5.90;;;1.90;99.90;;;;;;4954230;29;20211;-70
2022/12/18 19:31:19;;;;;;;32.47;13.60;;;1.90;99.90;;;;;;4954571;29;20704;-70
2022/12/18 19:33:47;;;;;;;24.17;10.27;;;2.00;99.90;;;;;;4954607;28;20204;-70
2022/12/18 19:36:18;;;;;;;26.77;7.43;;;2.10;99.90;;;;;;4954395;28;20239;-70
2022/12/18 19:38:45;;;;;;;23.47;9.13;;;2.10;99.90;;;;;;4954113;29;20210;-70
2022/12/18 19:41:14;;;;;;;18.30;7.60;;;2.10;99.90;;;;;;4954348;28;20211;-70
2022/12/18 19:43:41;;;;;;;23.53;9.47;;;2.10;99.90;;;;;;4954774;28;20220;-70
2022/12/18 19:46:11;;;;;;;26.33;9.67;;;2.20;99.90;;;;;;4954379;29;20234;-70
2022/12/18 19:48:38;;;;;;;20.23;7.23;;;2.20;99.90;;;;;;4953817;29;20212;-70
2022/12/18 19:51:06;;;;;;;27.33;9.37;;;2.10;99.90;;;;;;4954444;28;20212;-70
2022/12/18 19:53:33;;;;;;;17.20;6.90;;;2.10;99.90;;;;;;4954630;28;20215;-70
2022/12/18 19:56:04;;;;;;;16.97;7.20;;;2.10;99.90;;;;;;4954169;29;20266;-70
2022/12/18 19:58:32;;;;;;;22.90;9.27;;;2.10;99.90;;;;;;4954500;28;20216;-70
2022/12/18 20:00:59;;;;;;;31.03;11.07;;;2.10;99.90;;;;;;4954472;29;20215;-71
2022/12/18 20:03:26;;;;;;;22.47;8.43;;;2.10;99.90;;;;;;4954278;29;20218;-71
2022/12/18 20:05:53;;;;;;;24.90;9.07;;;2.20;99.90;;;;;;4954024;29;20224;-71
2022/12/18 20:08:20;;;;;;;24.07;8.83;;;2.20;99.90;;;;;;4954241;29;20219;-71
2022/12/18 20:10:47;;;;;;;27.83;10.83;;;2.20;99.90;;;;;;4954218;28;20244;-70
2022/12/18 20:13:14;;;;;;;25.80;9.43;;;2.20;99.90;;;;;;4954455;29;20219;-70
2022/12/18 20:15:42;;;;;;;21.87;9.43;;;2.20;99.90;;;;;;4954245;28;20232;-70
2022/12/18 20:18:10;;;;;;;17.23;7.80;;;2.20;99.90;;;;;;4979826;23;20234;-69
2022/12/18 20:20:37;;;;;;;20.60;8.87;;;2.10;99.90;;;;;;4992849;28;20210;-69
2022/12/18 20:23:04;;;;;;;22.20;9.17;;;2.10;99.90;;;;;;4993073;28;20558;-68
2022/12/18 20:25:30;;;;;;;26.83;9.53;;;2.30;99.90;;;;;;4980243;28;20227;-70
2022/12/18 20:27:57;;;;;;;15.67;6.57;;;2.20;99.90;;;;;;4973694;28;20211;-69
2022/12/18 20:30:24;;;;;;;27.37;8.33;;;2.20;99.90;;;;;;4973547;28;20211;-70
2022/12/18 20:32:52;;;;;;;19.40;6.30;;;2.10;99.90;;;;;;4973376;28;20208;-70
2022/12/18 20:35:19;;;;;;;23.00;8.40;;;2.20;99.90;;;;;;4973878;28;20227;-70
2022/12/18 20:37:46;;;;;;;22.87;9.03;;;2.20;99.90;;;;;;4973490;28;20207;-69
2022/12/18 20:40:13;;;;;;;17.10;7.57;;;2.20;99.90;;;;;;4973571;28;20207;-68
2022/12/18 20:42:39;;;;;;;26.80;9.07;;;2.10;99.90;;;;;;4973524;28;20219;-69
2022/12/18 20:45:07;;;;;;;18.17;7.03;;;2.10;99.90;;;;;;4973284;28;20282;-69
2022/12/18 20:47:34;;;;;;;17.23;7.03;;;2.20;99.90;;;;;;4973512;28;20211;-70
2022/12/18 20:50:03;;;;;;;15.90;5.73;;;2.20;99.90;;;;;;4973254;28;20742;-69
2022/12/18 20:52:29;;;;;;;16.57;5.80;;;2.20;99.90;;;;;;4972958;28;20728;-69
2022/12/18 20:54:57;;;;;;;13.30;6.30;;;2.20;99.90;;;;;;4973030;28;20586;-70
2022/12/18 20:57:23;;;;;;;14.00;5.93;;;2.20;99.90;;;;;;4973123;28;20714;-70
2022/12/18 20:59:50;;;;;;;13.27;4.60;;;2.30;99.90;;;;;;4975154;28;20211;-70
2022/12/18 21:02:21;;;;;;;15.30;6.50;;;2.30;99.90;;;;;;4976537;28;20557;-69
2022/12/18 21:04:49;;;;;;;13.03;6.07;;;2.40;99.90;;;;;;4976359;28;20231;-70
2022/12/18 21:07:17;;;;;;;13.70;6.00;;;2.50;99.90;;;;;;4976887;28;20218;-69
2022/12/18 21:09:44;;;;;;;14.17;5.10;;;2.50;99.90;;;;;;4976553;28;20254;-70
2022/12/18 21:12:32;;;;;;;13.93;5.73;;;2.40;99.90;;;;;;4976593;28;20298;-70
2022/12/18 21:14:59;;;;;;;14.03;6.80;;;2.30;99.90;;;;;;4976783;28;20227;-69
2022/12/18 21:17:26;;;;;;;20.97;9.70;;;2.40;99.90;;;;;;4976673;28;20245;-70
2022/12/18 21:19:53;;;;;;;23.67;7.33;;;2.50;99.90;;;;;;4976410;28;20207;-69
2022/12/18 21:22:21;;;;;;;20.03;7.20;;;2.50;99.90;;;;;;4976296;28;20211;-70
2022/12/18 21:24:48;;;;;;;13.77;5.33;;;2.50;99.90;;;;;;4975780;28;20231;-69
2022/12/18 21:27:14;;;;;;;19.87;6.87;;;2.50;99.90;;;;;;4976183;28;20213;-69
2022/12/18 21:29:42;;;;;;;10.20;4.93;;;2.40;99.90;;;;;;4976453;28;20212;-69
2022/12/18 21:32:09;;;;;;;17.20;7.20;;;2.40;99.90;;;;;;4976394;28;20211;-71
2022/12/18 21:34:36;;;;;;;13.10;5.57;;;2.40;99.90;;;;;;4975942;28;20231;-69
2022/12/18 21:37:04;;;;;;;19.37;6.50;;;2.50;99.90;;;;;;4975844;28;20246;-70
2022/12/18 21:39:32;;;;;;;14.30;5.57;;;2.60;99.90;;;;;;4976030;28;20203;-70